createdAt,value
2023-06-24T00:05:19.826Z,76000.22
2023-06-24T00:12:55.551Z,76006.34
2023-06-24T00:20:29.624Z,76010.44
2023-06-24T00:28:05.267Z,76018.59
2023-06-24T00:35:39.738Z,76026.78
2023-06-24T00:43:15.285Z,76032.88
2023-06-24T00:50:50.522Z,76039.00
2023-06-24T00:58:26.070Z,76049.22
2023-06-24T01:06:00.750Z,76057.38
2023-06-24T01:13:36.475Z,76053.28
2023-06-24T01:21:17.395Z,76057.38
2023-06-24T01:29:32.669Z,76061.47
2023-06-24T01:37:14.328Z,76077.78
2023-06-24T01:52:47.963Z,76098.19
2023-06-24T02:00:24.150Z,76116.56
2023-06-24T02:08:01.320Z,76130.84
2023-06-24T02:15:37.243Z,76145.13
2023-06-24T02:23:14.833Z,76161.47
2023-06-24T02:30:49.884Z,76175.75
2023-06-24T02:38:28.040Z,76190.03
2023-06-24T02:46:05.693Z,76210.44
2023-06-24T02:53:42.387Z,76224.75
2023-06-24T03:01:18.092Z,76245.16
2023-06-24T03:08:54.411Z,76249.22
2023-06-24T03:24:21.663Z,76292.09
2023-06-24T03:31:55.823Z,76302.31
2023-06-24T03:39:31.236Z,76318.63
2023-06-24T03:54:58.494Z,76328.84
2023-06-24T04:02:32.910Z,76328.84
2023-06-24T04:10:10.254Z,76332.91
2023-06-24T04:17:44.465Z,76345.16
2023-06-24T04:25:20.142Z,76351.28
2023-06-24T04:32:54.293Z,76361.50
2023-06-24T04:40:29.708Z,76363.53
2023-06-24T04:48:03.855Z,76363.53
2023-06-24T04:55:39.365Z,76363.53
2023-06-24T05:03:13.834Z,76363.53
2023-06-24T05:10:49.444Z,76359.44
2023-06-24T05:18:23.667Z,76361.50
2023-06-24T05:25:58.912Z,76343.13
2023-06-24T05:33:33.098Z,76339.03
2023-06-24T05:41:08.449Z,76363.53
2023-06-24T05:48:43.470Z,76365.56
2023-06-24T05:56:18.879Z,76324.75
2023-06-24T06:19:37.146Z,76285.97
2023-06-24T06:27:13.664Z,76273.72
2023-06-24T06:42:43.554Z,76224.75
2023-06-24T06:50:17.537Z,76204.31
2023-06-24T06:57:52.743Z,76188.00
2023-06-24T07:05:26.690Z,76171.69
2023-06-24T07:13:02.611Z,76153.31
2023-06-24T07:20:36.713Z,76141.06
2023-06-24T07:28:12.404Z,76128.81
2023-06-24T07:35:48.129Z,76124.72
2023-06-24T07:43:23.482Z,76100.25
2023-06-24T07:50:57.473Z,76081.88
2023-06-24T08:06:24.619Z,76061.47
2023-06-24T08:13:59.888Z,76036.97
2023-06-24T08:21:35.943Z,76022.69
2023-06-24T08:37:03.804Z,76008.41
2023-06-24T08:44:39.149Z,75963.50
2023-06-24T08:52:16.093Z,75957.38
2023-06-24T08:59:51.670Z,75947.16
2023-06-24T09:07:29.784Z,75916.56
2023-06-24T09:15:06.215Z,75910.44
2023-06-24T09:22:42.527Z,75885.94
2023-06-24T09:30:22.529Z,75869.63
2023-06-24T09:37:58.717Z,75836.97
2023-06-24T09:45:34.436Z,75804.31
2023-06-24T09:53:09.183Z,75730.84
2023-06-24T10:00:44.992Z,75724.72
2023-06-24T10:08:19.809Z,75736.97
2023-06-24T10:15:55.091Z,75710.44
2023-06-24T10:23:33.037Z,75639.00
2023-06-24T10:38:59.925Z,75632.91
2023-06-24T10:46:36.793Z,75636.97
2023-06-24T10:54:11.081Z,75573.72
2023-06-24T11:09:52.006Z,75565.56
2023-06-24T11:17:27.881Z,75561.47
2023-06-24T11:25:01.957Z,75557.38
2023-06-24T11:32:41.549Z,75518.63
2023-06-24T11:40:18.181Z,75532.91
2023-06-24T11:47:54.093Z,75516.56
2023-06-24T11:55:28.610Z,75502.28
2023-06-24T12:03:09.604Z,75496.16
2023-06-24T12:10:46.158Z,75463.53
2023-06-24T12:18:23.004Z,75432.91
2023-06-24T12:25:56.918Z,75414.56
2023-06-24T12:33:32.466Z,75412.50
2023-06-24T12:41:06.412Z,75396.19
2023-06-24T12:48:41.849Z,75390.06
2023-06-24T12:56:16.033Z,75359.47
2023-06-24T13:03:51.525Z,75341.09
2023-06-24T13:11:25.523Z,75330.88
2023-06-24T13:19:01.073Z,75314.56
2023-06-24T13:26:35.211Z,75298.25
2023-06-24T13:34:10.757Z,75257.44
2023-06-24T13:41:45.022Z,75202.34
2023-06-24T13:49:20.429Z,75188.06
2023-06-24T13:56:54.437Z,75130.94
2023-06-24T14:04:29.920Z,75114.59
2023-06-24T14:12:04.695Z,75055.44
2023-06-24T14:19:41.095Z,75022.78
2023-06-24T14:27:15.152Z,75041.16
2023-06-24T14:34:50.882Z,74998.31
2023-06-24T14:42:24.937Z,74992.19
2023-06-24T14:50:00.522Z,74914.66
2023-06-24T14:57:34.526Z,74908.53
2023-06-24T15:05:10.836Z,74867.72
2023-06-24T15:12:44.778Z,74910.56
2023-06-24T15:20:20.091Z,74882.00
2023-06-24T15:27:54.044Z,74847.31
2023-06-24T15:35:29.552Z,74853.44
2023-06-24T15:43:04.146Z,74863.66
2023-06-24T15:50:39.661Z,74804.47
2023-06-24T15:58:13.494Z,74777.97
2023-06-24T16:05:48.999Z,74814.69
2023-06-24T16:13:23.000Z,74743.28
2023-06-24T16:20:58.488Z,74763.69
2023-06-24T16:28:32.887Z,74763.69
2023-06-24T16:43:59.726Z,74780.00
2023-06-24T16:51:35.485Z,74808.56
2023-06-24T17:07:02.949Z,74808.56
2023-06-24T17:22:29.598Z,74843.25
2023-06-24T17:30:04.321Z,74855.50
2023-06-24T17:37:39.783Z,74863.66
2023-06-24T17:45:14.064Z,74914.66
2023-06-24T17:52:51.419Z,74926.91
2023-06-24T18:00:25.862Z,74953.41
2023-06-24T18:08:01.579Z,74996.25
2023-06-24T18:15:35.850Z,75022.78
2023-06-24T18:23:11.379Z,75057.47
2023-06-24T18:30:45.535Z,75084.00
2023-06-24T18:38:21.081Z,75110.53
2023-06-24T18:53:47.950Z,75157.44
2023-06-24T19:01:22.173Z,75183.97
2023-06-24T19:08:57.873Z,75232.94
2023-06-24T19:16:33.199Z,75245.19
2023-06-24T19:24:09.255Z,75261.50
2023-06-24T19:31:43.276Z,75290.06
2023-06-24T19:39:19.271Z,75316.59
2023-06-24T19:46:53.538Z,75339.06
2023-06-24T19:54:29.069Z,75375.78
2023-06-24T20:09:56.004Z,75426.78
2023-06-24T20:25:22.914Z,75467.59
2023-06-24T20:32:57.550Z,75496.16
2023-06-24T20:40:33.082Z,75508.41
2023-06-24T20:48:07.741Z,75522.69
2023-06-24T21:03:35.042Z,75561.47
2023-06-24T21:11:12.074Z,75575.75
2023-06-24T21:18:46.041Z,75596.16
2023-06-24T21:26:25.077Z,75610.44
2023-06-24T21:33:59.157Z,75630.84
2023-06-24T21:41:34.666Z,75643.09
2023-06-24T21:49:08.656Z,75651.25
2023-06-24T21:56:44.130Z,75665.53
2023-06-24T22:05:28.895Z,75685.94
2023-06-24T22:13:07.729Z,75698.19
2023-06-24T22:20:43.354Z,75720.66
2023-06-24T22:28:17.394Z,75732.88
2023-06-24T22:35:52.802Z,75757.38
2023-06-24T22:43:28.238Z,75775.75
2023-06-24T22:51:03.652Z,75785.94
2023-06-24T22:58:37.725Z,75800.22
2023-06-24T23:06:14.296Z,75812.47
2023-06-24T23:13:48.615Z,75826.75
2023-06-24T23:21:24.569Z,75826.75
2023-06-24T23:29:07.563Z,75839.00
2023-06-24T23:36:43.611Z,75845.13
2023-06-24T23:44:18.264Z,75855.34
2023-06-24T23:51:53.820Z,75861.47
2023-06-24T23:59:28.154Z,75871.66
